Time;durP1;ratioP1;P1;durP2;ratioP2;P2;SDS_P1;SDS_P2;PMS_P1;PMS_P2;Temp;Humidity;BMP_temperature;BMP_pressure;BME280_temperature;BME280_humidity;BME280_pressure;Samples;Min_cycle;Max_cycle;Signal;HPM_P1;HPM_P2
2023/05/10 00:00:28;;;;;;;0.50;0.50;;;;;;;;;;5058414;28;20184;-81
2023/05/10 00:02:54;;;;;;;0.50;0.50;;;;;;;;;;5057736;28;20175;-82
2023/05/10 00:05:21;;;;;;;0.50;0.50;;;;;;;;;;5036765;28;20234;-82
2023/05/10 00:07:47;;;;;;;0.50;0.50;;;;;;;;;;5033011;28;20473;-82
2023/05/10 00:10:13;;;;;;;0.60;0.60;;;;;;;;;;5033347;28;20724;-83
2023/05/10 00:12:38;;;;;;;0.53;0.53;;;;;;;;;;5032721;28;20175;-84
2023/05/10 00:15:05;;;;;;;0.40;0.40;;;;;;;;;;5032864;28;20219;-83
2023/05/10 00:17:31;;;;;;;0.57;0.57;;;;;;;;;;5033150;28;20270;-82
2023/05/10 00:19:57;;;;;;;0.50;0.50;;;;;;;;;;5033128;28;20191;-83
2023/05/10 00:22:23;;;;;;;0.50;0.50;;;;;;;;;;5032518;28;20180;-82
2023/05/10 00:24:49;;;;;;;0.50;0.50;;;;;;;;;;5033002;28;20203;-83
2023/05/10 00:27:15;;;;;;;0.40;0.40;;;;;;;;;;5033368;28;20198;-82
2023/05/10 00:29:41;;;;;;;0.50;0.50;;;;;;;;;;5032544;28;20567;-83
2023/05/10 00:32:07;;;;;;;0.40;0.40;;;;;;;;;;5033475;28;20190;-82
2023/05/10 00:34:33;;;;;;;0.40;0.40;;;;;;;;;;5032503;28;20196;-82
2023/05/10 00:36:59;;;;;;;0.40;0.40;;;;;;;;;;5033220;28;20265;-83
2023/05/10 00:39:26;;;;;;;0.50;0.50;;;;;;;;;;5032973;28;20639;-84
2023/05/10 00:41:52;;;;;;;0.40;0.40;;;;;;;;;;5032376;28;20180;-82
2023/05/10 00:44:18;;;;;;;0.57;0.57;;;;;;;;;;5031746;28;20315;-82
2023/05/10 00:46:45;;;;;;;0.40;0.40;;;;;;;;;;5032515;28;20187;-82
2023/05/10 00:49:11;;;;;;;0.40;0.40;;;;;;;;;;5032907;28;20184;-82
2023/05/10 00:51:37;;;;;;;0.40;0.40;;;;;;;;;;5032714;28;20259;-82
2023/05/10 00:54:03;;;;;;;0.40;0.40;;;;;;;;;;5030935;28;20200;-82
2023/05/10 00:56:29;;;;;;;0.50;0.50;;;;;;;;;;5033455;28;20560;-83
2023/05/10 00:58:56;;;;;;;0.43;0.43;;;;;;;;;;5034169;28;20359;-83
2023/05/10 01:01:22;;;;;;;0.57;0.57;;;;;;;;;;5035675;28;20251;-84
2023/05/10 01:03:49;;;;;;;0.40;0.40;;;;;;;;;;5035296;28;20206;-84
2023/05/10 01:06:14;;;;;;;0.60;0.60;;;;;;;;;;5035294;28;20181;-83
2023/05/10 01:08:41;;;;;;;0.57;0.57;;;;;;;;;;5034868;28;20187;-82
2023/05/10 01:11:07;;;;;;;0.40;0.40;;;;;;;;;;5035198;28;20249;-83
2023/05/10 01:13:33;;;;;;;0.50;0.50;;;;;;;;;;5033566;28;20215;-83
2023/05/10 01:16:02;;;;;;;0.47;0.47;;;;;;;;;;5034008;28;20673;-83
2023/05/10 01:18:28;;;;;;;0.50;0.50;;;;;;;;;;5034023;28;20175;-83
2023/05/10 01:21:05;;;;;;;0.50;0.50;;;;;;;;;;5034879;28;20206;-84
2023/05/10 01:23:37;;;;;;;0.50;0.50;;;;;;;;;;5033995;28;20176;-82
2023/05/10 01:26:12;;;;;;;0.40;0.40;;;;;;;;;;5035116;28;20270;-82
2023/05/10 01:28:57;;;;;;;0.50;0.50;;;;;;;;;;5035002;28;20658;-83
2023/05/10 01:31:41;;;;;;;0.50;0.50;;;;;;;;;;5034941;28;20188;-84
2023/05/10 01:34:09;;;;;;;0.57;0.57;;;;;;;;;;5033960;28;20194;-83
2023/05/10 01:36:40;;;;;;;0.50;0.50;;;;;;;;;;5034170;28;20628;-83
2023/05/10 01:39:12;;;;;;;0.40;0.40;;;;;;;;;;5034341;28;20186;-83
2023/05/10 01:41:48;;;;;;;0.43;0.43;;;;;;;;;;5033892;28;20187;-83
2023/05/10 01:44:17;;;;;;;0.50;0.50;;;;;;;;;;5033793;28;20198;-84
2023/05/10 01:46:44;;;;;;;0.50;0.50;;;;;;;;;;5033776;28;20192;-83
2023/05/10 01:49:13;;;;;;;0.60;0.60;;;;;;;;;;5033919;28;20187;-83
2023/05/10 01:51:42;;;;;;;0.50;0.50;;;;;;;;;;5041063;22;20234;-83
2023/05/10 01:54:09;;;;;;;0.50;0.50;;;;;;;;;;4953913;28;20268;-84
2023/05/10 01:56:36;;;;;;;0.40;0.40;;;;;;;;;;4953729;29;20189;-84
2023/05/10 01:59:06;;;;;;;0.50;0.50;;;;;;;;;;4953452;28;20606;-83
2023/05/10 02:01:32;;;;;;;0.50;0.50;;;;;;;;;;4954412;29;20186;-84
2023/05/10 02:03:58;;;;;;;0.57;0.57;;;;;;;;;;4952982;28;20206;-81
2023/05/10 02:06:25;;;;;;;0.40;0.40;;;;;;;;;;4953671;28;20199;-82
2023/05/10 02:08:52;;;;;;;0.53;0.53;;;;;;;;;;4952403;28;20192;-82
2023/05/10 02:11:19;;;;;;;0.60;0.60;;;;;;;;;;4952533;29;20215;-83
2023/05/10 02:13:47;;;;;;;0.50;0.50;;;;;;;;;;4952014;28;20198;-81
2023/05/10 02:16:13;;;;;;;0.57;0.57;;;;;;;;;;4952613;28;20195;-81
2023/05/10 02:18:39;;;;;;;0.53;0.53;;;;;;;;;;4952703;28;20562;-82
2023/05/10 02:21:06;;;;;;;0.50;0.50;;;;;;;;;;4952847;28;20179;-81
2023/05/10 02:23:32;;;;;;;0.50;0.50;;;;;;;;;;4952432;28;20179;-81
2023/05/10 02:25:59;;;;;;;0.50;0.50;;;;;;;;;;4952646;28;20185;-81
2023/05/10 02:28:27;;;;;;;0.50;0.50;;;;;;;;;;4952795;28;20246;-82
2023/05/10 02:30:53;;;;;;;0.50;0.50;;;;;;;;;;4952745;28;20677;-80
2023/05/10 02:33:20;;;;;;;0.60;0.60;;;;;;;;;;4951872;28;20183;-82
2023/05/10 02:35:47;;;;;;;0.53;0.53;;;;;;;;;;4952840;28;20181;-82
2023/05/10 02:38:14;;;;;;;0.50;0.50;;;;;;;;;;4952430;28;20182;-81
2023/05/10 02:40:42;;;;;;;0.60;0.60;;;;;;;;;;4952587;28;20237;-82
2023/05/10 02:43:09;;;;;;;0.50;0.50;;;;;;;;;;4952128;28;20601;-82
2023/05/10 02:45:35;;;;;;;0.60;0.60;;;;;;;;;;4952828;28;20205;-82
2023/05/10 02:48:02;;;;;;;0.60;0.60;;;;;;;;;;4952432;28;20190;-81
2023/05/10 02:50:30;;;;;;;0.67;0.67;;;;;;;;;;4955502;28;20223;-82
2023/05/10 02:53:00;;;;;;;0.60;0.60;;;;;;;;;;4955305;28;20202;-81
2023/05/10 02:55:32;;;;;;;0.50;0.50;;;;;;;;;;4955608;28;20727;-80
2023/05/10 02:57:59;;;;;;;0.40;0.40;;;;;;;;;;4956457;29;20236;-80
2023/05/10 03:00:26;;;;;;;0.50;0.50;;;;;;;;;;4956326;28;20631;-82
2023/05/10 03:02:52;;;;;;;0.40;0.40;;;;;;;;;;4955129;28;20174;-90
2023/05/10 03:05:18;;;;;;;0.50;0.50;;;;;;;;;;4955689;28;20301;-82
2023/05/10 03:07:44;;;;;;;0.50;0.50;;;;;;;;;;4955490;28;20175;-83
2023/05/10 03:10:11;;;;;;;0.40;0.40;;;;;;;;;;4954842;29;20254;-82
2023/05/10 03:12:40;;;;;;;0.50;0.50;;;;;;;;;;4955345;28;20265;-82
2023/05/10 03:15:24;;;;;;;0.70;0.70;;;;;;;;;;4955453;28;20202;-80
2023/05/10 03:17:50;;;;;;;0.60;0.60;;;;;;;;;;4955491;28;20669;-82
2023/05/10 03:20:21;;;;;;;0.60;0.60;;;;;;;;;;4955730;28;20248;-81
2023/05/10 03:22:50;;;;;;;0.63;0.63;;;;;;;;;;4955122;29;20217;-82
2023/05/10 03:25:17;;;;;;;0.70;0.70;;;;;;;;;;4955238;28;20584;-83
2023/05/10 03:27:43;;;;;;;0.63;0.63;;;;;;;;;;4955882;28;20182;-83
2023/05/10 03:30:11;;;;;;;0.60;0.60;;;;;;;;;;4956593;29;20218;-82
2023/05/10 03:32:37;;;;;;;0.50;0.50;;;;;;;;;;4956540;28;20206;-82
2023/05/10 03:35:09;;;;;;;0.60;0.60;;;;;;;;;;4956686;28;20206;-83
2023/05/10 03:37:36;;;;;;;0.60;0.60;;;;;;;;;;4956335;28;20212;-83
2023/05/10 03:40:02;;;;;;;0.50;0.50;;;;;;;;;;4956675;28;20332;-83
2023/05/10 03:42:28;;;;;;;0.60;0.60;;;;;;;;;;4955744;28;20182;-83
2023/05/10 03:44:54;;;;;;;0.60;0.60;;;;;;;;;;4955959;28;20289;-82
2023/05/10 03:47:20;;;;;;;0.50;0.50;;;;;;;;;;4956155;28;20182;-82
2023/05/10 03:49:46;;;;;;;0.60;0.60;;;;;;;;;;4956534;28;20301;-83
2023/05/10 03:52:12;;;;;;;0.60;0.60;;;;;;;;;;4956144;28;20208;-84
2023/05/10 03:54:38;;;;;;;0.60;0.60;;;;;;;;;;4956116;28;20206;-82
2023/05/10 03:57:04;;;;;;;0.60;0.60;;;;;;;;;;4956228;28;20174;-82
2023/05/10 03:59:30;;;;;;;0.40;0.40;;;;;;;;;;4954222;28;20182;-82
2023/05/10 04:01:56;;;;;;;0.50;0.50;;;;;;;;;;4953384;28;20185;-83
2023/05/10 04:04:23;;;;;;;0.50;0.50;;;;;;;;;;4953734;28;20265;-82
2023/05/10 04:06:49;;;;;;;0.63;0.63;;;;;;;;;;4954220;28;20185;-82
2023/05/10 04:09:16;;;;;;;0.60;0.60;;;;;;;;;;4953349;28;20186;-83
2023/05/10 04:11:42;;;;;;;0.60;0.60;;;;;;;;;;4954149;28;20228;-82
2023/05/10 04:14:08;;;;;;;0.53;0.53;;;;;;;;;;4953890;28;20198;-82
2023/05/10 04:16:34;;;;;;;0.60;0.60;;;;;;;;;;4954608;28;20231;-82
2023/05/10 04:19:00;;;;;;;0.60;0.60;;;;;;;;;;4955078;28;20188;-82
2023/05/10 04:21:26;;;;;;;0.60;0.60;;;;;;;;;;4957045;28;20179;-82
2023/05/10 04:23:52;;;;;;;0.50;0.50;;;;;;;;;;4954829;28;20202;-83
2023/05/10 04:26:18;;;;;;;0.50;0.50;;;;;;;;;;4956804;28;20259;-81
2023/05/10 04:28:44;;;;;;;0.53;0.53;;;;;;;;;;4964285;28;20175;-80
2023/05/10 04:31:10;;;;;;;0.40;0.40;;;;;;;;;;4974697;28;20222;-80
2023/05/10 04:33:36;;;;;;;0.50;0.50;;;;;;;;;;4972251;28;20186;-81
2023/05/10 04:36:02;;;;;;;0.40;0.40;;;;;;;;;;4955377;28;20183;-82
2023/05/10 04:38:29;;;;;;;0.50;0.50;;;;;;;;;;4954003;28;20184;-82
2023/05/10 04:40:55;;;;;;;0.40;0.40;;;;;;;;;;4953925;28;20186;-83
2023/05/10 04:43:21;;;;;;;0.50;0.50;;;;;;;;;;4953340;28;20647;-82
2023/05/10 04:45:47;;;;;;;0.40;0.40;;;;;;;;;;4953435;28;20193;-82
2023/05/10 04:48:13;;;;;;;0.40;0.40;;;;;;;;;;4954039;29;20265;-80
2023/05/10 04:50:40;;;;;;;0.50;0.50;;;;;;;;;;4954609;28;20218;-83
2023/05/10 04:53:06;;;;;;;0.50;0.50;;;;;;;;;;4953944;28;20251;-84
2023/05/10 04:55:32;;;;;;;0.50;0.50;;;;;;;;;;4954684;28;20220;-82
2023/05/10 04:57:58;;;;;;;0.50;0.50;;;;;;;;;;4954616;28;20186;-82
2023/05/10 05:00:24;;;;;;;0.50;0.50;;;;;;;;;;4954668;28;20187;-82
2023/05/10 05:02:51;;;;;;;0.50;0.50;;;;;;;;;;4955236;28;20305;-83
2023/05/10 05:05:17;;;;;;;0.50;0.50;;;;;;;;;;4957076;28;20213;-83
2023/05/10 05:07:43;;;;;;;0.40;0.40;;;;;;;;;;4967900;28;20178;-81
2023/05/10 05:10:09;;;;;;;0.50;0.50;;;;;;;;;;4972903;28;20210;-82
2023/05/10 05:12:35;;;;;;;0.47;0.47;;;;;;;;;;4971131;28;20205;-81
2023/05/10 05:15:02;;;;;;;0.40;0.40;;;;;;;;;;4972753;28;20202;-82
2023/05/10 05:17:28;;;;;;;0.50;0.50;;;;;;;;;;4972590;28;20174;-81
2023/05/10 05:19:54;;;;;;;0.40;0.40;;;;;;;;;;4970516;28;20290;-82
2023/05/10 05:22:27;;;;;;;0.57;0.57;;;;;;;;;;4968963;28;20183;-85
2023/05/10 05:24:53;;;;;;;0.50;0.50;;;;;;;;;;4956345;29;20207;-82
2023/05/10 05:27:20;;;;;;;0.60;0.60;;;;;;;;;;4944483;28;20241;-84
2023/05/10 05:29:46;;;;;;;0.60;0.60;;;;;;;;;;4937604;28;20261;-83
2023/05/10 05:32:13;;;;;;;0.50;0.50;;;;;;;;;;4937646;28;20254;-83
2023/05/10 05:34:39;;;;;;;0.40;0.40;;;;;;;;;;4936612;28;20226;-84
2023/05/10 05:37:05;;;;;;;0.40;0.40;;;;;;;;;;4937193;28;20233;-84
2023/05/10 05:39:31;;;;;;;0.60;0.60;;;;;;;;;;4937842;28;20190;-84
2023/05/10 05:41:58;;;;;;;0.40;0.40;;;;;;;;;;4936939;28;20183;-83
2023/05/10 05:44:24;;;;;;;0.40;0.40;;;;;;;;;;4936077;28;20200;-85
2023/05/10 05:46:50;;;;;;;0.60;0.60;;;;;;;;;;4937101;28;20263;-83
2023/05/10 05:49:16;;;;;;;0.40;0.40;;;;;;;;;;4935854;28;20593;-84
2023/05/10 05:51:42;;;;;;;0.50;0.50;;;;;;;;;;4933535;28;20268;-84
2023/05/10 05:54:08;;;;;;;0.47;0.47;;;;;;;;;;4933443;29;20211;-83
2023/05/10 05:56:34;;;;;;;0.50;0.50;;;;;;;;;;4932762;28;20268;-83
2023/05/10 05:59:00;;;;;;;0.50;0.50;;;;;;;;;;4934284;28;20179;-84
2023/05/10 06:01:26;;;;;;;0.50;0.50;;;;;;;;;;4933841;28;20650;-83
2023/05/10 06:03:52;;;;;;;0.50;0.50;;;;;;;;;;4933312;28;20207;-83
2023/05/10 06:06:18;;;;;;;0.50;0.50;;;;;;;;;;4933373;28;20171;-83
2023/05/10 06:08:44;;;;;;;0.60;0.60;;;;;;;;;;4932715;28;20206;-82
2023/05/10 06:11:10;;;;;;;0.50;0.50;;;;;;;;;;4933045;28;20211;-83
2023/05/10 06:13:36;;;;;;;0.47;0.47;;;;;;;;;;4932564;28;20210;-84
2023/05/10 06:16:08;;;;;;;0.50;0.50;;;;;;;;;;4933687;28;20201;-85
2023/05/10 06:18:34;;;;;;;0.50;0.50;;;;;;;;;;4933378;28;20182;-84
2023/05/10 06:21:00;;;;;;;0.50;0.50;;;;;;;;;;4933699;28;20180;-82
2023/05/10 06:23:26;;;;;;;0.53;0.53;;;;;;;;;;4932873;28;20179;-82
2023/05/10 06:25:52;;;;;;;0.43;0.43;;;;;;;;;;4937119;28;20233;-83
2023/05/10 06:28:18;;;;;;;0.60;0.60;;;;;;;;;;4936133;28;20262;-81
2023/05/10 06:30:44;;;;;;;0.50;0.50;;;;;;;;;;4936578;28;20686;-81
2023/05/10 06:33:10;;;;;;;0.53;0.53;;;;;;;;;;4936607;28;20262;-81
2023/05/10 06:35:36;;;;;;;0.50;0.50;;;;;;;;;;4936537;28;20203;-83
2023/05/10 06:38:02;;;;;;;0.50;0.50;;;;;;;;;;4936525;28;20180;-83
2023/05/10 06:40:28;;;;;;;0.43;0.43;;;;;;;;;;4936159;28;20274;-83
2023/05/10 06:42:54;;;;;;;0.40;0.40;;;;;;;;;;4935707;28;20225;-83
2023/05/10 06:45:22;;;;;;;0.43;0.43;;;;;;;;;;4936543;28;20206;-84
2023/05/10 06:47:48;;;;;;;0.50;0.50;;;;;;;;;;4941225;28;20265;-84
2023/05/10 06:50:14;;;;;;;0.50;0.50;;;;;;;;;;4956450;28;20241;-82
2023/05/10 06:52:40;;;;;;;0.40;0.40;;;;;;;;;;4954689;28;20209;-83
2023/05/10 06:55:07;;;;;;;0.60;0.60;;;;;;;;;;4954124;28;20203;-84
2023/05/10 06:57:33;;;;;;;0.50;0.50;;;;;;;;;;4955353;28;20171;-83
2023/05/10 06:59:59;;;;;;;0.50;0.50;;;;;;;;;;4955408;28;20198;-85
2023/05/10 07:02:25;;;;;;;0.50;0.50;;;;;;;;;;4952512;28;20179;-82
2023/05/10 07:04:51;;;;;;;0.53;0.53;;;;;;;;;;4955052;28;20209;-82
2023/05/10 07:07:17;;;;;;;0.60;0.60;;;;;;;;;;4954982;28;20178;-84
2023/05/10 07:09:43;;;;;;;0.70;0.70;;;;;;;;;;4948689;28;20218;-84
2023/05/10 07:12:09;;;;;;;0.67;0.67;;;;;;;;;;4949406;28;20178;-80
2023/05/10 07:14:35;;;;;;;0.43;0.43;;;;;;;;;;4943480;28;20198;-83
2023/05/10 07:17:01;;;;;;;0.50;0.50;;;;;;;;;;4945713;28;20244;-86
2023/05/10 07:19:29;;;;;;;0.60;0.60;;;;;;;;;;4952423;28;20540;-82
2023/05/10 07:21:55;;;;;;;0.63;0.63;;;;;;;;;;4956859;28;20594;-83
2023/05/10 07:24:21;;;;;;;0.50;0.50;;;;;;;;;;4957561;28;20202;-82
2023/05/10 07:26:47;;;;;;;0.50;0.50;;;;;;;;;;4957165;28;20572;-84
2023/05/10 07:29:13;;;;;;;0.50;0.50;;;;;;;;;;4956776;28;20217;-81
2023/05/10 07:31:41;;;;;;;0.50;0.50;;;;;;;;;;4957393;28;20178;-81
2023/05/10 07:34:07;;;;;;;0.40;0.40;;;;;;;;;;4956860;28;20285;-81
2023/05/10 07:36:33;;;;;;;0.40;0.40;;;;;;;;;;4955993;28;20186;-79
2023/05/10 07:38:59;;;;;;;0.60;0.60;;;;;;;;;;4957416;28;20178;-79
2023/05/10 07:41:25;;;;;;;0.50;0.50;;;;;;;;;;4957043;28;20179;-82
2023/05/10 07:43:51;;;;;;;0.50;0.50;;;;;;;;;;4957137;28;20202;-79
2023/05/10 07:46:19;;;;;;;0.60;0.60;;;;;;;;;;4957322;28;20220;-79
2023/05/10 07:48:45;;;;;;;0.50;0.50;;;;;;;;;;4956808;28;20666;-80
2023/05/10 07:51:11;;;;;;;0.57;0.57;;;;;;;;;;4956376;28;20253;-80
2023/05/10 07:53:38;;;;;;;0.47;0.47;;;;;;;;;;4956624;28;20240;-81
2023/05/10 07:56:29;;;;;;;0.40;0.40;;;;;;;;;;4957296;28;20186;-80
2023/05/10 07:58:55;;;;;;;0.60;0.60;;;;;;;;;;4957121;29;20596;-80
2023/05/10 08:01:22;;;;;;;0.60;0.60;;;;;;;;;;4956806;28;20277;-80
2023/05/10 08:03:48;;;;;;;0.57;0.57;;;;;;;;;;4950422;28;20231;-81
2023/05/10 08:06:15;;;;;;;0.50;0.50;;;;;;;;;;4944257;28;20233;-80
2023/05/10 08:08:41;;;;;;;0.70;0.70;;;;;;;;;;4947903;28;20281;-81
2023/05/10 08:11:07;;;;;;;0.70;0.70;;;;;;;;;;4940432;28;20219;-81
2023/05/10 08:13:33;;;;;;;0.70;0.70;;;;;;;;;;4939007;28;20549;-81
2023/05/10 08:16:00;;;;;;;0.60;0.60;;;;;;;;;;4939083;28;20657;-80
2023/05/10 08:18:26;;;;;;;0.57;0.57;;;;;;;;;;4938275;28;20623;-81
2023/05/10 08:20:52;;;;;;;0.50;0.50;;;;;;;;;;4939613;28;20262;-81
2023/05/10 08:23:18;;;;;;;0.50;0.50;;;;;;;;;;4942275;28;20761;-81
2023/05/10 08:25:44;;;;;;;0.40;0.40;;;;;;;;;;4939885;28;20206;-80
2023/05/10 08:28:10;;;;;;;0.63;0.63;;;;;;;;;;4940928;28;20270;-81
2023/05/10 08:30:36;;;;;;;0.53;0.53;;;;;;;;;;4939681;28;20272;-81
2023/05/10 08:33:02;;;;;;;0.50;0.50;;;;;;;;;;4940718;28;20187;-81
2023/05/10 08:35:28;;;;;;;0.60;0.60;;;;;;;;;;4942210;28;20675;-81
2023/05/10 08:37:54;;;;;;;0.47;0.47;;;;;;;;;;4943497;28;20195;-80
2023/05/10 08:40:20;;;;;;;0.60;0.60;;;;;;;;;;4955746;28;20596;-80
2023/05/10 08:42:54;;;;;;;0.57;0.57;;;;;;;;;;4969783;28;20254;-80
2023/05/10 08:45:20;;;;;;;0.50;0.50;;;;;;;;;;4961373;28;20285;-81
2023/05/10 08:47:46;;;;;;;0.50;0.50;;;;;;;;;;4972341;28;20655;-80
2023/05/10 08:50:13;;;;;;;0.50;0.50;;;;;;;;;;4976555;28;20206;-81
2023/05/10 08:52:40;;;;;;;0.40;0.40;;;;;;;;;;4967349;28;20634;-81
2023/05/10 08:55:07;;;;;;;0.37;0.37;;;;;;;;;;4975686;28;20563;-82
2023/05/10 08:57:33;;;;;;;0.50;0.50;;;;;;;;;;4992523;28;20188;-81
2023/05/10 09:00:01;;;;;;;0.50;0.50;;;;;;;;;;4957517;28;20212;-81
2023/05/10 09:02:27;;;;;;;0.40;0.40;;;;;;;;;;4961965;28;20178;-81
2023/05/10 09:04:53;;;;;;;0.40;0.40;;;;;;;;;;4964667;28;20674;-81
2023/05/10 09:07:19;;;;;;;0.40;0.40;;;;;;;;;;4969773;28;20186;-81
2023/05/10 09:09:47;;;;;;;0.50;0.50;;;;;;;;;;4959721;28;20213;-81
2023/05/10 09:12:15;;;;;;;0.40;0.40;;;;;;;;;;4970069;28;20230;-82
2023/05/10 09:14:41;;;;;;;0.40;0.40;;;;;;;;;;4963581;28;20198;-81
2023/05/10 09:17:07;;;;;;;0.43;0.43;;;;;;;;;;4962102;28;20642;-80
2023/05/10 09:19:34;;;;;;;0.50;0.50;;;;;;;;;;4970634;28;20203;-81
2023/05/10 09:22:01;;;;;;;0.40;0.40;;;;;;;;;;4958297;28;20239;-80
2023/05/10 09:24:30;;;;;;;0.37;0.37;;;;;;;;;;4965622;28;20199;-81
2023/05/10 09:26:58;;;;;;;0.30;0.30;;;;;;;;;;4962969;28;20189;-81
2023/05/10 09:29:24;;;;;;;0.50;0.50;;;;;;;;;;4958434;28;20179;-80
2023/05/10 09:31:56;;;;;;;0.60;0.60;;;;;;;;;;4969693;28;20181;-82
2023/05/10 09:34:32;;;;;;;0.50;0.50;;;;;;;;;;4959993;28;20233;-81
2023/05/10 09:37:00;;;;;;;0.47;0.47;;;;;;;;;;4962979;28;20189;-81
2023/05/10 09:39:36;;;;;;;0.50;0.50;;;;;;;;;;4957590;28;20206;-82
2023/05/10 09:42:06;;;;;;;0.40;0.40;;;;;;;;;;4956723;28;20197;-81
2023/05/10 09:44:33;;;;;;;0.37;0.37;;;;;;;;;;4964715;28;20206;-81
2023/05/10 09:46:59;;;;;;;0.50;0.50;;;;;;;;;;4963303;28;20265;-81
2023/05/10 09:49:25;;;;;;;0.37;0.37;;;;;;;;;;4957584;28;20467;-81
2023/05/10 09:52:07;;;;;;;0.40;0.40;;;;;;;;;;4968401;28;20799;-81
2023/05/10 09:54:34;;;;;;;0.50;0.50;;;;;;;;;;4960257;28;20691;-81
2023/05/10 09:57:00;;;;;;;0.40;0.40;;;;;;;;;;4960493;28;20187;-82
2023/05/10 09:59:28;;;;;;;0.50;0.50;;;;;;;;;;4970816;28;20205;-81
2023/05/10 10:01:56;;;;;;;0.40;0.40;;;;;;;;;;4959269;28;20644;-80
2023/05/10 10:04:22;;;;;;;0.60;0.60;;;;;;;;;;4968570;28;20210;-81
2023/05/10 10:06:59;;;;;;;0.43;0.43;;;;;;;;;;4972623;28;20241;-80
2023/05/10 10:09:25;;;;;;;0.43;0.43;;;;;;;;;;5007540;28;20174;-80
2023/05/10 10:11:51;;;;;;;0.30;0.30;;;;;;;;;;4992419;28;20189;-80
2023/05/10 10:14:19;;;;;;;0.43;0.43;;;;;;;;;;4982412;28;20201;-81
2023/05/10 10:16:45;;;;;;;0.40;0.40;;;;;;;;;;4981654;28;20273;-81
2023/05/10 10:19:11;;;;;;;0.40;0.40;;;;;;;;;;4976466;28;20182;-82
2023/05/10 10:21:37;;;;;;;0.43;0.43;;;;;;;;;;4961241;28;20491;-82
2023/05/10 10:24:05;;;;;;;0.30;0.30;;;;;;;;;;4972250;28;20229;-81
2023/05/10 10:26:31;;;;;;;0.30;0.30;;;;;;;;;;4966138;28;20209;-81
2023/05/10 10:29:02;;;;;;;0.37;0.37;;;;;;;;;;4967123;28;20270;-82
2023/05/10 10:31:34;;;;;;;0.40;0.40;;;;;;;;;;4972887;28;20213;-82
2023/05/10 10:34:02;;;;;;;0.40;0.40;;;;;;;;;;4958840;28;20198;-81
2023/05/10 10:36:28;;;;;;;0.40;0.40;;;;;;;;;;4966472;28;20179;-81
2023/05/10 10:38:58;;;;;;;0.30;0.30;;;;;;;;;;4975893;28;20182;-82
2023/05/10 10:41:27;;;;;;;0.30;0.30;;;;;;;;;;4956614;28;20210;-82
2023/05/10 10:44:39;;;;;;;0.30;0.30;;;;;;;;;;4966579;28;20690;-81
2023/05/10 10:47:08;;;;;;;0.33;0.33;;;;;;;;;;4989169;28;20184;-86
2023/05/10 10:49:37;;;;;;;0.30;0.30;;;;;;;;;;4986439;28;20265;-82
2023/05/10 10:52:22;;;;;;;0.40;0.40;;;;;;;;;;4964036;28;20266;-81
2023/05/10 10:54:59;;;;;;;0.50;0.50;;;;;;;;;;4947370;29;20199;-82
2023/05/10 10:57:26;;;;;;;0.40;0.40;;;;;;;;;;4946762;29;20551;-81
2023/05/10 10:59:52;;;;;;;0.40;0.40;;;;;;;;;;4946330;28;20193;-82
2023/05/10 11:02:34;;;;;;;0.30;0.30;;;;;;;;;;4949569;28;20203;-81
2023/05/10 11:05:00;;;;;;;0.40;0.40;;;;;;;;;;4946895;28;20210;-82
2023/05/10 11:07:26;;;;;;;0.50;0.50;;;;;;;;;;4945112;28;20183;-82
2023/05/10 11:09:53;;;;;;;0.40;0.40;;;;;;;;;;4940169;29;20217;-81
2023/05/10 11:12:18;;;;;;;0.40;0.40;;;;;;;;;;4943748;28;20171;-82
2023/05/10 11:14:50;;;;;;;0.50;0.50;;;;;;;;;;4938412;28;20780;-82
2023/05/10 11:17:27;;;;;;;0.30;0.30;;;;;;;;;;4939386;29;20186;-81
2023/05/10 11:20:10;;;;;;;0.43;0.43;;;;;;;;;;4937821;29;20194;-82
2023/05/10 11:22:56;;;;;;;0.40;0.40;;;;;;;;;;4936824;28;20211;-82
2023/05/10 11:25:28;;;;;;;0.43;0.43;;;;;;;;;;4937572;29;20564;-83
2023/05/10 11:27:54;;;;;;;0.50;0.50;;;;;;;;;;4938096;28;20581;-81
2023/05/10 11:30:20;;;;;;;0.53;0.53;;;;;;;;;;4937877;28;20883;-82
2023/05/10 11:32:46;;;;;;;0.57;0.57;;;;;;;;;;4937641;28;20175;-81
2023/05/10 11:35:12;;;;;;;0.60;0.60;;;;;;;;;;4937774;28;20267;-82
2023/05/10 11:37:43;;;;;;;0.70;0.70;;;;;;;;;;4938352;28;20179;-83
2023/05/10 11:40:09;;;;;;;0.60;0.60;;;;;;;;;;4938765;29;20199;-85
2023/05/10 11:42:38;;;;;;;0.50;0.50;;;;;;;;;;4938385;28;20201;-82
2023/05/10 11:45:04;;;;;;;0.60;0.60;;;;;;;;;;4939378;28;20207;-83
2023/05/10 11:47:30;;;;;;;0.60;0.60;;;;;;;;;;4939506;28;20329;-82
2023/05/10 11:49:56;;;;;;;0.60;0.60;;;;;;;;;;4940273;28;20223;-83
2023/05/10 11:52:22;;;;;;;0.60;0.60;;;;;;;;;;4938332;28;20267;-82
2023/05/10 11:54:54;;;;;;;0.67;0.67;;;;;;;;;;4940184;28;20219;-82
2023/05/10 11:57:20;;;;;;;0.47;0.47;;;;;;;;;;4939632;28;20180;-80
2023/05/10 11:59:54;;;;;;;0.57;0.57;;;;;;;;;;4953345;28;20228;-82
2023/05/10 12:02:20;;;;;;;0.40;0.40;;;;;;;;;;4959095;29;20252;-82
2023/05/10 12:04:46;;;;;;;0.60;0.60;;;;;;;;;;4960465;28;20202;-83
2023/05/10 12:07:12;;;;;;;0.50;0.50;;;;;;;;;;4942061;28;20183;-82
2023/05/10 12:09:42;;;;;;;0.50;0.50;;;;;;;;;;4941103;28;20183;-82
2023/05/10 12:12:08;;;;;;;0.60;0.60;;;;;;;;;;4941951;29;20176;-83
2023/05/10 12:14:35;;;;;;;0.70;0.70;;;;;;;;;;4941531;28;20199;-82
2023/05/10 12:17:01;;;;;;;0.60;0.60;;;;;;;;;;4942190;28;20311;-83
2023/05/10 12:19:27;;;;;;;0.60;0.60;;;;;;;;;;4942024;28;20184;-82
2023/05/10 12:21:53;;;;;;;0.50;0.50;;;;;;;;;;4942079;28;20183;-83
2023/05/10 12:24:21;;;;;;;0.50;0.50;;;;;;;;;;4950961;29;20207;-80
2023/05/10 12:26:48;;;;;;;0.40;0.40;;;;;;;;;;4951814;28;20189;-81
2023/05/10 12:29:18;;;;;;;0.50;0.50;;;;;;;;;;4951781;28;20529;-81
2023/05/10 12:31:51;;;;;;;0.47;0.47;;;;;;;;;;4951440;28;20219;-81
2023/05/10 12:34:25;;;;;;;0.50;0.50;;;;;;;;;;4952945;28;20195;-81
2023/05/10 12:36:52;;;;;;;0.43;0.43;;;;;;;;;;4948094;28;20179;-83
2023/05/10 12:39:18;;;;;;;0.50;0.50;;;;;;;;;;4943648;28;20187;-81
2023/05/10 12:41:44;;;;;;;0.50;0.50;;;;;;;;;;4951985;28;20205;-81
2023/05/10 12:44:10;;;;;;;0.50;0.50;;;;;;;;;;4951474;28;20265;-81
2023/05/10 12:46:36;;;;;;;0.50;0.50;;;;;;;;;;4942685;28;20180;-83
2023/05/10 12:49:02;;;;;;;0.40;0.40;;;;;;;;;;4941805;28;20195;-82
2023/05/10 12:51:28;;;;;;;0.40;0.40;;;;;;;;;;4964514;28;20210;-81
2023/05/10 12:53:55;;;;;;;0.30;0.30;;;;;;;;;;4966187;28;20199;-82
2023/05/10 12:56:21;;;;;;;0.40;0.40;;;;;;;;;;4967094;28;20217;-80
2023/05/10 12:58:47;;;;;;;0.40;0.40;;;;;;;;;;4967687;28;20187;-82
2023/05/10 13:01:14;;;;;;;0.40;0.40;;;;;;;;;;4953406;28;20190;-82
2023/05/10 13:03:40;;;;;;;0.50;0.50;;;;;;;;;;4954423;28;20190;-82
2023/05/10 13:06:06;;;;;;;0.43;0.43;;;;;;;;;;4954369;28;20179;-81
2023/05/10 13:08:33;;;;;;;0.50;0.50;;;;;;;;;;4952150;28;20206;-81
2023/05/10 13:11:02;;;;;;;0.40;0.40;;;;;;;;;;4952850;28;20246;-81
2023/05/10 13:13:28;;;;;;;0.50;0.50;;;;;;;;;;4950582;28;20167;-82
2023/05/10 13:15:54;;;;;;;0.40;0.40;;;;;;;;;;4953520;28;20202;-82
2023/05/10 13:18:20;;;;;;;0.50;0.50;;;;;;;;;;4953345;28;20179;-80
2023/05/10 13:20:46;;;;;;;0.40;0.40;;;;;;;;;;4952843;28;20186;-82
2023/05/10 13:23:12;;;;;;;0.50;0.50;;;;;;;;;;4952741;28;20273;-83
2023/05/10 13:25:39;;;;;;;0.43;0.43;;;;;;;;;;4952765;28;20281;-82
2023/05/10 13:28:05;;;;;;;0.40;0.40;;;;;;;;;;4952672;28;20175;-80
2023/05/10 13:30:31;;;;;;;0.60;0.60;;;;;;;;;;4953082;28;20263;-82
2023/05/10 13:32:57;;;;;;;0.50;0.50;;;;;;;;;;4951270;28;20171;-82
2023/05/10 13:35:23;;;;;;;0.50;0.50;;;;;;;;;;4952626;28;20201;-82
2023/05/10 13:37:49;;;;;;;0.50;0.50;;;;;;;;;;4952761;28;20190;-82
2023/05/10 13:40:15;;;;;;;0.43;0.43;;;;;;;;;;4948334;28;20175;-80
2023/05/10 13:42:41;;;;;;;0.50;0.50;;;;;;;;;;4954305;28;20186;-79
2023/05/10 13:45:07;;;;;;;0.43;0.43;;;;;;;;;;4951854;28;20197;-80
2023/05/10 13:47:33;;;;;;;0.50;0.50;;;;;;;;;;4953925;28;20653;-83
2023/05/10 13:50:00;;;;;;;0.33;0.33;;;;;;;;;;4956573;28;20704;-82
2023/05/10 13:52:26;;;;;;;0.50;0.50;;;;;;;;;;4954382;28;20198;-80
2023/05/10 13:54:54;;;;;;;0.47;0.47;;;;;;;;;;4954417;28;20226;-81
2023/05/10 13:57:20;;;;;;;0.50;0.50;;;;;;;;;;4951115;28;20186;-82
2023/05/10 13:59:46;;;;;;;0.50;0.50;;;;;;;;;;4950349;28;20198;-82
2023/05/10 14:02:13;;;;;;;0.40;0.40;;;;;;;;;;4949237;28;20190;-82
2023/05/10 14:04:39;;;;;;;0.47;0.47;;;;;;;;;;4952776;28;20202;-80
2023/05/10 14:07:05;;;;;;;0.50;0.50;;;;;;;;;;4953160;28;20297;-81
2023/05/10 14:09:31;;;;;;;0.40;0.40;;;;;;;;;;4949731;28;20174;-81
2023/05/10 14:11:57;;;;;;;0.50;0.50;;;;;;;;;;4951191;28;20209;-81
2023/05/10 14:14:23;;;;;;;0.40;0.40;;;;;;;;;;4951489;28;20340;-81
2023/05/10 14:16:49;;;;;;;0.40;0.40;;;;;;;;;;4951214;28;20179;-81
2023/05/10 14:19:15;;;;;;;0.37;0.37;;;;;;;;;;4951771;28;20179;-80
2023/05/10 14:21:41;;;;;;;0.50;0.50;;;;;;;;;;4951274;29;20273;-81
2023/05/10 14:24:07;;;;;;;0.50;0.50;;;;;;;;;;4950665;28;20704;-81
2023/05/10 14:26:34;;;;;;;0.50;0.50;;;;;;;;;;4949920;28;20189;-80
2023/05/10 14:29:00;;;;;;;0.50;0.50;;;;;;;;;;4952063;28;20610;-81
2023/05/10 14:31:26;;;;;;;0.30;0.30;;;;;;;;;;4951649;28;20289;-81
2023/05/10 14:33:52;;;;;;;0.33;0.33;;;;;;;;;;4951234;28;20637;-81
2023/05/10 14:36:19;;;;;;;0.50;0.50;;;;;;;;;;4952162;28;20202;-81
2023/05/10 14:38:44;;;;;;;0.43;0.43;;;;;;;;;;4951604;28;20228;-82
2023/05/10 14:41:14;;;;;;;0.47;0.47;;;;;;;;;;4957728;28;20199;-86
2023/05/10 14:43:40;;;;;;;0.47;0.47;;;;;;;;;;4952086;28;20542;-84